Government of Jersey

Home Log in

METAR EGJJ 211450Z 13013KT CAVOK 23/16 Q1006

METAR EGJB 211450Z 14013KT CAVOK 22/15 Q1006

METAR EGJA 211450Z 16013KT CAVOK 23/14 Q1007

METAR LFRD 211430Z AUTO 17015KT CAVOK 26/16 Q1007 TEMPO 17015G25KT SHRA SCT060CB

METAR LFRC 211430Z AUTO 12009KT CAVOK 23/15 Q1008 TEMPO 17015G30KT 3000 TSRA BKN050CB